createdAt,value
2022-08-07T00:04:03.528Z,62
2022-08-07T00:19:21.409Z,62.5
2022-08-07T00:34:35.827Z,63.5
2022-08-07T00:50:20.194Z,64
2022-08-07T01:05:19.310Z,65
2022-08-07T01:20:30.684Z,66
2022-08-07T01:35:54.203Z,66.5
2022-08-07T01:50:58.929Z,67.5
2022-08-07T02:06:31.706Z,68.5
2022-08-07T02:21:56.665Z,69.5
2022-08-07T02:36:47.578Z,70.5
2022-08-07T02:52:04.586Z,72.5
2022-08-07T03:07:43.071Z,72.5
2022-08-07T03:22:37.530Z,72.5
2022-08-07T03:37:54.454Z,74
2022-08-07T03:53:10.461Z,75.5
2022-08-07T04:08:26.435Z,76.5
2022-08-07T04:23:43.819Z,76.5
2022-08-07T04:39:00.395Z,77
2022-08-07T04:54:17.345Z,77.5
2022-08-07T05:09:45.823Z,76
2022-08-07T05:24:56.656Z,73
2022-08-07T05:40:18.036Z,71.5
2022-08-07T05:55:25.223Z,70
2022-08-07T06:10:42.513Z,70.5
2022-08-07T06:25:59.112Z,68.5
2022-08-07T06:41:15.202Z,68
2022-08-07T06:56:31.088Z,64.5
2022-08-07T07:12:09.037Z,64
2022-08-07T07:27:03.987Z,61.5
2022-08-07T07:42:25.666Z,60
2022-08-07T07:57:52.361Z,60.5
2022-08-07T08:12:59.693Z,57.5
2022-08-07T08:28:10.860Z,55.5
2022-08-07T08:43:32.053Z,55.5
2022-08-07T08:58:42.796Z,51.5
2022-08-07T09:13:58.790Z,51
2022-08-07T09:30:05.112Z,51
2022-08-07T09:44:46.492Z,50
2022-08-07T10:00:00.968Z,49
2022-08-07T10:15:06.329Z,46.5
2022-08-07T10:30:22.591Z,45
2022-08-07T10:45:45.198Z,45
2022-08-07T11:00:56.049Z,43
2022-08-07T11:16:10.534Z,39.5
2022-08-07T11:31:28.493Z,40.5
2022-08-07T11:46:45.461Z,40.5
2022-08-07T12:02:02.515Z,41.5
2022-08-07T12:17:30.335Z,38
2022-08-07T12:32:35.364Z,39
2022-08-07T12:47:51.306Z,38
2022-08-07T13:03:07.327Z,37
2022-08-07T13:18:26.856Z,34.5
2022-08-07T13:34:30.855Z,35
2022-08-07T13:48:59.567Z,36
2022-08-07T14:04:15.184Z,35.5
2022-08-07T14:20:43.338Z,34.5
2022-08-07T14:34:48.128Z,37.5
2022-08-07T14:50:04.053Z,34
2022-08-07T15:05:23.423Z,33.5
2022-08-07T15:20:55.969Z,34.5
2022-08-07T15:36:01.864Z,33
2022-08-07T15:51:12.112Z,33
2022-08-07T16:06:27.903Z,32.5
2022-08-07T16:22:03.146Z,32
2022-08-07T16:37:02.808Z,31.5
2022-08-07T16:52:51.991Z,32
2022-08-07T17:07:55.458Z,31.5
2022-08-07T17:22:49.787Z,32.5
2022-08-07T17:38:15.101Z,33.5
2022-08-07T17:54:01.700Z,35.5
2022-08-07T18:09:00.724Z,36.5
2022-08-07T18:23:57.457Z,35.5
2022-08-07T18:40:06.559Z,38
2022-08-07T18:54:31.175Z,39
2022-08-07T19:09:55.830Z,38.5
2022-08-07T19:25:05.566Z,38.5
2022-08-07T19:40:30.568Z,40
2022-08-07T19:55:56.913Z,42
2022-08-07T20:10:55.890Z,43.5
2022-08-07T20:26:11.421Z,44
2022-08-07T20:41:28.386Z,45
2022-08-07T20:56:46.255Z,45.5
2022-08-07T21:12:00.319Z,46
2022-08-07T21:27:17.254Z,47
2022-08-07T21:42:42.223Z,47
2022-08-07T21:57:52.834Z,48.5
2022-08-07T22:13:09.419Z,49.5
2022-08-07T22:28:31.124Z,50.5
2022-08-07T22:29:13.725Z,50.5
2022-08-07T22:43:43.135Z,51.5
2022-08-07T22:59:00.101Z,53
2022-08-07T23:14:16.826Z,55
2022-08-07T23:29:43.832Z,55
2022-08-07T23:44:49.013Z,56
